createdAt,value
2018-09-14T00:01:57.105Z,10.70
2018-09-14T00:04:25.754Z,10.80
2018-09-14T00:06:54.545Z,10.80
2018-09-14T00:09:23.302Z,10.80
2018-09-14T00:11:51.990Z,10.70
2018-09-14T00:14:20.734Z,10.70
2018-09-14T00:16:49.551Z,10.70
2018-09-14T00:19:18.210Z,10.70
2018-09-14T00:21:46.916Z,10.80
2018-09-14T00:24:15.764Z,10.80
2018-09-14T00:26:44.378Z,10.80
2018-09-14T00:29:13.661Z,10.80
2018-09-14T00:31:42.235Z,10.80
2018-09-14T00:34:11.614Z,10.80
2018-09-14T00:36:40.528Z,10.70
2018-09-14T00:39:12.275Z,10.70
2018-09-14T00:41:40.917Z,10.60
2018-09-14T00:44:09.597Z,10.60
2018-09-14T00:46:38.349Z,10.60
2018-09-14T00:49:06.974Z,10.60
2018-09-14T00:51:35.621Z,10.70
2018-09-14T00:54:05.290Z,10.70
2018-09-14T00:56:34.161Z,10.70
2018-09-14T00:59:03.764Z,10.70
2018-09-14T01:01:33.232Z,10.70
2018-09-14T01:04:02.020Z,10.70
2018-09-14T01:06:30.747Z,10.80
2018-09-14T01:08:59.569Z,10.80
2018-09-14T01:11:28.341Z,10.90
2018-09-14T01:13:57.547Z,11.00
2018-09-14T01:16:26.216Z,11.10
2018-09-14T01:18:54.770Z,11.20
2018-09-14T01:21:23.533Z,11.20
2018-09-14T01:23:52.205Z,11.20
2018-09-14T01:26:20.896Z,11.20
2018-09-14T01:28:49.569Z,11.10
2018-09-14T01:31:18.279Z,11.20
2018-09-14T01:33:46.928Z,11.10
2018-09-14T01:36:15.620Z,11.20
2018-09-14T01:38:44.965Z,11.20
2018-09-14T01:41:13.624Z,11.20
2018-09-14T01:43:42.316Z,11.20
2018-09-14T01:46:10.985Z,11.20
2018-09-14T01:48:39.650Z,11.10
2018-09-14T01:51:08.380Z,11.10
2018-09-14T01:53:37.089Z,11.20
2018-09-14T01:56:06.353Z,11.10
2018-09-14T01:58:35.953Z,11.20
2018-09-14T02:01:04.678Z,11.20
2018-09-14T02:03:33.545Z,11.20
2018-09-14T02:06:02.284Z,11.20
2018-09-14T02:08:30.912Z,11.20
2018-09-14T02:10:59.673Z,11.20
2018-09-14T02:13:30.186Z,11.20
2018-09-14T02:15:59.025Z,11.20
2018-09-14T02:18:28.343Z,11.20
2018-09-14T02:20:57.356Z,11.10
2018-09-14T02:23:26.906Z,11.10
2018-09-14T02:25:55.748Z,11.10
2018-09-14T02:28:24.627Z,11.10
2018-09-14T02:30:53.637Z,11.10
2018-09-14T02:33:37.051Z,11.10
2018-09-14T02:36:05.905Z,11.10
2018-09-14T02:38:35.383Z,11.10
2018-09-14T02:41:04.647Z,11.10
2018-09-14T02:43:33.563Z,11.10
2018-09-14T02:46:02.550Z,11.20
2018-09-14T02:48:31.406Z,11.20
2018-09-14T02:51:00.906Z,11.20
2018-09-14T02:53:30.405Z,11.30
2018-09-14T02:56:00.043Z,11.30
2018-09-14T02:58:28.955Z,11.30
2018-09-14T03:00:57.991Z,11.30
2018-09-14T03:03:28.889Z,11.30
2018-09-14T03:05:57.980Z,11.30
2018-09-14T03:08:26.836Z,11.40
2018-09-14T03:10:55.703Z,11.50
2018-09-14T03:13:24.460Z,11.50
2018-09-14T03:15:53.460Z,11.50
2018-09-14T03:18:22.496Z,11.50
2018-09-14T03:20:51.902Z,11.50
2018-09-14T03:23:20.730Z,11.50
2018-09-14T03:25:49.526Z,11.50
2018-09-14T03:28:19.666Z,11.60
2018-09-14T03:30:48.393Z,11.60
2018-09-14T03:33:17.941Z,11.60
2018-09-14T03:35:46.757Z,11.60
2018-09-14T03:38:15.630Z,11.70
2018-09-14T03:40:44.400Z,11.70
2018-09-14T03:43:13.426Z,11.60
2018-09-14T03:45:42.333Z,11.60
2018-09-14T03:48:11.230Z,11.70
2018-09-14T03:50:39.939Z,11.70
2018-09-14T03:53:09.457Z,11.70
2018-09-14T03:55:38.296Z,11.60
2018-09-14T03:58:07.965Z,11.60
2018-09-14T04:00:36.916Z,11.60
2018-09-14T04:03:06.269Z,11.60
2018-09-14T04:05:35.238Z,11.60
2018-09-14T04:08:04.167Z,11.60
2018-09-14T04:10:32.995Z,11.70
2018-09-14T04:13:01.838Z,11.70
2018-09-14T04:15:30.923Z,11.70
2018-09-14T04:17:59.818Z,11.80
2018-09-14T04:20:28.607Z,11.80
2018-09-14T04:26:16.455Z,11.80
2018-09-14T04:28:45.229Z,11.70
2018-09-14T04:31:14.161Z,11.70
2018-09-14T04:33:43.618Z,11.70
2018-09-14T04:36:13.174Z,11.70
2018-09-14T04:38:43.093Z,11.70
2018-09-14T04:41:35.076Z,11.80
2018-09-14T04:44:04.913Z,11.80
2018-09-14T04:46:36.404Z,11.80
2018-09-14T04:49:07.342Z,11.90
2018-09-14T04:51:36.818Z,11.90
2018-09-14T04:54:07.436Z,11.90
2018-09-14T04:56:36.340Z,11.90
2018-09-14T04:59:05.282Z,12.00
2018-09-14T05:01:34.600Z,12.00
2018-09-14T05:04:04.501Z,12.00
2018-09-14T05:06:38.526Z,12.00
2018-09-14T05:09:08.934Z,12.00
2018-09-14T05:11:38.855Z,12.00
2018-09-14T05:14:08.507Z,12.10
2018-09-14T05:16:42.898Z,12.10
2018-09-14T05:19:12.413Z,12.10
2018-09-14T05:21:41.723Z,12.20
2018-09-14T05:24:13.362Z,12.20
2018-09-14T05:26:44.275Z,12.20
2018-09-14T05:29:16.211Z,12.20
2018-09-14T05:31:46.207Z,12.30
2018-09-14T05:34:16.439Z,12.30
2018-09-14T05:36:47.019Z,12.30
2018-09-14T05:39:16.774Z,12.30
2018-09-14T05:41:47.299Z,12.30
2018-09-14T05:44:18.709Z,12.30
2018-09-14T05:46:54.720Z,12.30
2018-09-14T05:49:26.299Z,12.40
2018-09-14T05:51:55.214Z,12.40
2018-09-14T05:54:23.898Z,12.40
2018-09-14T05:56:52.614Z,12.40
2018-09-14T05:59:21.440Z,12.40
2018-09-14T06:01:53.222Z,12.40
2018-09-14T06:04:23.086Z,12.40
2018-09-14T06:06:51.698Z,12.40
2018-09-14T06:09:20.390Z,12.40
2018-09-14T06:11:49.065Z,12.40
2018-09-14T06:14:18.253Z,12.40
2018-09-14T06:16:46.874Z,12.50
2018-09-14T06:19:15.513Z,12.50
2018-09-14T06:21:44.222Z,12.50
2018-09-14T06:24:12.957Z,12.50
2018-09-14T06:26:41.691Z,12.50
2018-09-14T06:29:10.444Z,12.50
2018-09-14T06:31:39.202Z,12.50
2018-09-14T06:34:07.926Z,12.50
2018-09-14T06:36:36.589Z,12.50
2018-09-14T06:39:08.237Z,12.60
2018-09-14T06:41:36.821Z,12.60
2018-09-14T06:44:05.464Z,12.60
2018-09-14T06:46:34.181Z,12.60
2018-09-14T06:49:03.480Z,12.60
2018-09-14T06:51:32.119Z,12.60
2018-09-14T06:54:00.849Z,12.60
2018-09-14T06:56:29.536Z,12.60
2018-09-14T06:58:58.602Z,12.60
2018-09-14T07:01:27.898Z,12.70
2018-09-14T07:03:56.563Z,12.70
2018-09-14T07:06:25.333Z,12.70
2018-09-14T07:08:53.947Z,12.70
2018-09-14T07:11:22.670Z,12.70
2018-09-14T07:13:52.583Z,12.70
2018-09-14T07:16:21.298Z,12.70
2018-09-14T07:18:50.048Z,12.70
2018-09-14T07:21:18.757Z,12.70
2018-09-14T07:23:47.528Z,12.70
2018-09-14T07:26:16.221Z,12.80
2018-09-14T07:28:45.002Z,12.80
2018-09-14T07:31:13.726Z,12.80
2018-09-14T07:33:42.491Z,12.90
2018-09-14T07:36:11.275Z,12.90
2018-09-14T07:38:39.980Z,12.90
2018-09-14T07:41:08.853Z,12.90
2018-09-14T07:43:37.647Z,12.90
2018-09-14T07:46:06.560Z,12.90
2018-09-14T07:48:35.406Z,12.90
2018-09-14T07:51:04.522Z,12.90
2018-09-14T07:53:33.439Z,12.90
2018-09-14T07:56:02.186Z,12.90
2018-09-14T07:58:30.912Z,12.90
2018-09-14T08:00:59.752Z,12.90
2018-09-14T08:03:28.430Z,12.90
2018-09-14T08:05:57.073Z,12.90
2018-09-14T08:08:25.805Z,12.90
2018-09-14T08:10:54.450Z,12.90
2018-09-14T08:13:23.321Z,12.90
2018-09-14T08:15:51.936Z,12.90
2018-09-14T08:18:20.651Z,12.90
2018-09-14T08:20:49.338Z,12.90
2018-09-14T08:23:17.932Z,12.90
2018-09-14T08:25:46.580Z,13.00
2018-09-14T08:28:15.284Z,12.90
2018-09-14T08:30:43.986Z,12.90
2018-09-14T08:33:12.576Z,13.10
2018-09-14T08:35:41.262Z,13.00
2018-09-14T08:38:09.934Z,13.00
2018-09-14T08:40:38.663Z,13.00
2018-09-14T08:43:07.310Z,13.00
2018-09-14T08:45:36.020Z,13.00
2018-09-14T08:48:04.937Z,13.00
2018-09-14T08:50:33.518Z,13.10
2018-09-14T08:53:02.251Z,13.10
2018-09-14T08:55:30.854Z,13.10
2018-09-14T08:57:59.641Z,13.20
2018-09-14T09:00:28.237Z,13.20
2018-09-14T09:02:56.841Z,13.30
2018-09-14T09:05:25.483Z,13.30
2018-09-14T09:07:54.121Z,13.30
2018-09-14T09:10:22.727Z,13.30
2018-09-14T09:12:51.386Z,13.40
2018-09-14T09:15:20.154Z,13.40
2018-09-14T09:17:48.916Z,13.50
2018-09-14T09:20:17.487Z,13.60
2018-09-14T09:22:46.106Z,13.70
2018-09-14T09:25:15.334Z,13.70
2018-09-14T09:27:43.938Z,13.80
2018-09-14T09:30:12.512Z,13.70
2018-09-14T09:32:41.110Z,13.80
2018-09-14T09:35:09.782Z,13.80
2018-09-14T09:37:38.369Z,13.80
2018-09-14T09:40:06.995Z,13.80
2018-09-14T09:42:35.568Z,13.80
2018-09-14T09:45:04.274Z,13.90
2018-09-14T09:47:33.006Z,13.90
2018-09-14T09:50:01.670Z,13.90
2018-09-14T09:52:30.384Z,14.00
2018-09-14T09:54:58.987Z,14.00
2018-09-14T09:57:27.597Z,14.10
2018-09-14T09:59:56.215Z,14.20
2018-09-14T10:02:29.298Z,14.30
2018-09-14T10:05:03.995Z,14.40
2018-09-14T10:07:32.738Z,14.50
2018-09-14T10:10:01.444Z,14.50
2018-09-14T10:12:30.227Z,14.60
2018-09-14T10:14:58.978Z,14.80
2018-09-14T10:17:27.670Z,14.90
2018-09-14T10:19:56.365Z,14.90
2018-09-14T10:22:25.095Z,15.00
2018-09-14T10:24:53.747Z,15.10
2018-09-14T10:27:22.448Z,15.10
2018-09-14T10:29:51.142Z,15.20
2018-09-14T10:32:19.869Z,15.30
2018-09-14T10:34:48.660Z,15.40
2018-09-14T10:37:17.427Z,15.40
2018-09-14T10:39:46.151Z,15.50
2018-09-14T10:42:14.791Z,15.70
2018-09-14T10:44:43.473Z,15.80
2018-09-14T10:47:12.166Z,15.80
2018-09-14T10:49:40.903Z,15.80
2018-09-14T10:52:09.558Z,15.90
2018-09-14T10:54:38.275Z,16.10
2018-09-14T10:57:06.857Z,16.30
2018-09-14T10:59:35.560Z,16.50
2018-09-14T11:02:05.119Z,16.60
2018-09-14T11:04:33.973Z,16.80
2018-09-14T11:07:02.705Z,16.90
2018-09-14T11:09:31.596Z,17.00
2018-09-14T11:12:00.235Z,17.00
2018-09-14T11:14:29.034Z,17.10
2018-09-14T11:16:57.617Z,17.20
2018-09-14T11:19:26.332Z,17.20
2018-09-14T11:21:55.219Z,17.30
2018-09-14T11:24:23.812Z,17.20
2018-09-14T11:26:52.553Z,17.50
2018-09-14T11:29:21.180Z,17.70
2018-09-14T11:31:50.196Z,17.80
2018-09-14T11:34:18.902Z,17.90
2018-09-14T11:36:48.309Z,17.90
2018-09-14T11:39:16.994Z,17.90
2018-09-14T11:41:45.828Z,17.80
2018-09-14T11:44:14.413Z,17.80
2018-09-14T11:46:43.126Z,17.70
2018-09-14T11:49:11.851Z,17.50
2018-09-14T11:51:40.477Z,17.50
2018-09-14T11:54:09.149Z,17.50
2018-09-14T11:56:37.856Z,17.50
2018-09-14T11:59:06.544Z,17.50
2018-09-14T12:01:35.169Z,17.50
2018-09-14T12:04:03.926Z,17.60
2018-09-14T12:06:32.547Z,17.50
2018-09-14T12:09:01.304Z,17.50
2018-09-14T12:11:30.018Z,17.50
2018-09-14T12:13:58.696Z,17.50
2018-09-14T12:16:27.333Z,17.60
2018-09-14T12:18:56.020Z,17.90
2018-09-14T12:21:24.732Z,18.00
2018-09-14T12:23:53.508Z,18.10
2018-09-14T12:26:22.164Z,18.00
2018-09-14T12:28:50.890Z,18.00
2018-09-14T12:31:19.545Z,18.00
2018-09-14T12:33:48.195Z,17.90
2018-09-14T12:36:17.041Z,17.80
2018-09-14T12:38:45.637Z,17.80
2018-09-14T12:41:15.133Z,17.70
2018-09-14T12:43:43.821Z,17.60
2018-09-14T12:46:12.494Z,17.50
2018-09-14T12:48:41.145Z,17.50
2018-09-14T12:51:10.814Z,17.50
2018-09-14T12:53:39.430Z,17.30
2018-09-14T12:56:08.054Z,17.30
2018-09-14T12:58:36.808Z,17.10
2018-09-14T13:01:05.589Z,17.10
2018-09-14T13:03:34.397Z,17.00
2018-09-14T13:06:03.267Z,16.90
2018-09-14T13:08:32.019Z,16.90
2018-09-14T13:11:00.671Z,16.90
2018-09-14T13:13:29.328Z,17.00
2018-09-14T13:15:58.019Z,17.00
2018-09-14T13:18:26.582Z,17.00
2018-09-14T13:20:56.256Z,17.00
2018-09-14T13:23:24.857Z,17.10
2018-09-14T13:25:53.677Z,17.20
2018-09-14T13:28:22.263Z,17.40
2018-09-14T13:30:50.870Z,17.60
2018-09-14T13:33:19.502Z,17.70
2018-09-14T13:35:48.120Z,17.80
2018-09-14T13:38:16.756Z,17.90
2018-09-14T13:40:45.375Z,17.90
2018-09-14T13:43:14.110Z,18.00
2018-09-14T13:45:42.709Z,18.00
2018-09-14T13:48:11.291Z,18.20
2018-09-14T13:50:40.001Z,18.30
2018-09-14T13:53:08.713Z,18.40
2018-09-14T13:55:37.658Z,18.50
2018-09-14T13:58:06.481Z,18.60
2018-09-14T14:00:35.170Z,18.50
2018-09-14T14:03:04.069Z,18.50
2018-09-14T14:05:32.679Z,18.60
2018-09-14T14:08:01.401Z,18.60
2018-09-14T14:10:29.956Z,18.40
2018-09-14T14:12:59.128Z,18.50
2018-09-14T14:15:27.733Z,18.70
2018-09-14T14:17:56.420Z,18.70
2018-09-14T14:20:25.052Z,18.60
2018-09-14T14:22:53.594Z,18.80
2018-09-14T14:25:22.405Z,18.80
2018-09-14T14:27:51.109Z,18.60
2018-09-14T14:30:19.701Z,18.50
2018-09-14T14:32:48.343Z,18.50
2018-09-14T14:35:17.109Z,18.30
2018-09-14T14:37:45.807Z,18.20
2018-09-14T14:40:14.472Z,18.20
2018-09-14T14:42:43.122Z,18.20
2018-09-14T14:45:11.707Z,18.20
2018-09-14T14:47:40.308Z,18.00
2018-09-14T14:50:08.905Z,17.90
2018-09-14T14:52:37.700Z,17.80
2018-09-14T14:55:06.395Z,17.80
2018-09-14T14:57:35.037Z,17.60
2018-09-14T15:00:03.701Z,17.60
2018-09-14T15:02:32.429Z,17.60
2018-09-14T15:05:01.136Z,17.40
2018-09-14T15:07:29.881Z,17.30
2018-09-14T15:09:58.667Z,17.30
2018-09-14T15:12:27.258Z,17.20
2018-09-14T15:14:56.011Z,17.10
2018-09-14T15:17:24.711Z,17.10
2018-09-14T15:19:53.417Z,17.20
2018-09-14T15:22:22.113Z,17.10
2018-09-14T15:24:50.818Z,17.10
2018-09-14T15:27:21.540Z,17.00
2018-09-14T15:29:50.434Z,16.90
2018-09-14T15:32:19.419Z,17.00
2018-09-14T15:34:48.172Z,16.90
2018-09-14T15:37:17.024Z,16.90
2018-09-14T15:39:45.666Z,16.90
2018-09-14T15:42:14.289Z,16.90
2018-09-14T15:44:43.055Z,16.90
2018-09-14T15:47:11.759Z,16.80
2018-09-14T15:49:40.373Z,16.80
2018-09-14T15:52:09.086Z,16.80
2018-09-14T15:54:37.770Z,16.80
2018-09-14T15:57:06.490Z,16.80
2018-09-14T15:59:35.132Z,16.80
2018-09-14T16:02:03.828Z,16.80
2018-09-14T16:04:32.497Z,16.80
2018-09-14T16:07:01.258Z,16.80
2018-09-14T16:09:29.962Z,16.80
2018-09-14T16:11:58.604Z,16.80
2018-09-14T16:14:27.296Z,16.70
2018-09-14T16:16:56.165Z,16.70
2018-09-14T16:19:24.965Z,16.60
2018-09-14T16:21:53.678Z,16.60
2018-09-14T16:24:22.332Z,16.50
2018-09-14T16:26:51.047Z,16.50
2018-09-14T16:29:19.767Z,16.50
2018-09-14T16:31:48.493Z,16.50
2018-09-14T16:34:17.037Z,16.50
2018-09-14T16:36:45.763Z,16.60
2018-09-14T16:39:14.370Z,16.50
2018-09-14T16:41:43.140Z,16.50
2018-09-14T16:44:11.953Z,16.50
2018-09-14T16:46:40.773Z,16.40
2018-09-14T16:49:11.156Z,16.40
2018-09-14T16:51:41.416Z,16.30
2018-09-14T16:54:10.163Z,16.30
2018-09-14T16:56:39.117Z,16.20
2018-09-14T16:59:08.321Z,16.20
2018-09-14T17:01:39.320Z,16.10
2018-09-14T17:04:10.209Z,16.10
2018-09-14T17:06:40.221Z,16.10
2018-09-14T17:09:09.669Z,16.10
2018-09-14T17:11:38.570Z,16.00
2018-09-14T17:14:07.997Z,16.00
2018-09-14T17:16:37.031Z,16.00
2018-09-14T17:19:06.105Z,16.00
2018-09-14T17:21:35.206Z,15.90
2018-09-14T17:24:04.149Z,15.90
2018-09-14T17:26:32.836Z,15.80
2018-09-14T17:29:01.418Z,15.80
2018-09-14T17:31:30.562Z,15.80
2018-09-14T17:33:59.580Z,15.80
2018-09-14T17:36:28.351Z,15.80
2018-09-14T17:38:56.917Z,15.80
2018-09-14T17:41:25.567Z,15.70
2018-09-14T17:43:54.226Z,15.80
2018-09-14T17:46:22.950Z,15.70
2018-09-14T17:48:51.638Z,15.60
2018-09-14T17:51:20.524Z,15.60
2018-09-14T17:53:49.243Z,15.40
2018-09-14T17:56:17.981Z,15.30
2018-09-14T17:58:46.838Z,15.30
2018-09-14T18:01:17.387Z,15.10
2018-09-14T18:03:52.104Z,14.90
2018-09-14T18:11:42.533Z,14.70
2018-09-14T18:14:18.694Z,14.80
2018-09-14T18:16:53.082Z,14.80
2018-09-14T18:19:46.445Z,14.70
2018-09-14T18:22:26.433Z,14.70
2018-09-14T18:25:02.506Z,14.50
2018-09-14T18:27:32.635Z,14.50
2018-09-14T18:30:07.299Z,14.40
2018-09-14T18:32:42.341Z,14.40
2018-09-14T18:35:13.768Z,14.30
2018-09-14T18:37:56.880Z,14.30
2018-09-14T18:40:31.377Z,14.20
2018-09-14T18:43:05.827Z,14.20
2018-09-14T18:45:36.263Z,14.20
2018-09-14T18:48:09.612Z,14.20
2018-09-14T18:50:41.306Z,14.20
2018-09-14T18:53:10.692Z,14.20
2018-09-14T18:55:41.210Z,14.20
2018-09-14T18:58:16.370Z,14.10
2018-09-14T19:00:46.854Z,14.10
2018-09-14T19:03:17.913Z,14.00
2018-09-14T19:05:49.591Z,14.00
2018-09-14T19:08:19.032Z,14.00
2018-09-14T19:10:53.746Z,14.00
2018-09-14T19:13:27.399Z,13.90
2018-09-14T19:16:02.840Z,13.80
2018-09-14T19:18:32.084Z,13.80
2018-09-14T19:21:02.892Z,13.70
2018-09-14T19:23:32.288Z,13.70
2018-09-14T19:26:02.832Z,13.60
2018-09-14T19:28:34.296Z,13.70
2018-09-14T19:31:04.370Z,13.70
2018-09-14T19:33:34.457Z,13.70
2018-09-14T19:36:05.911Z,13.70
2018-09-14T19:38:37.743Z,13.60
2018-09-14T19:41:07.041Z,13.60
2018-09-14T19:43:39.094Z,13.50
2018-09-14T19:46:12.161Z,13.50
2018-09-14T19:48:41.633Z,13.50
2018-09-14T19:51:10.898Z,13.50
2018-09-14T19:53:41.736Z,13.40
2018-09-14T19:56:10.909Z,13.40
2018-09-14T19:58:42.720Z,13.40
2018-09-14T20:01:11.706Z,13.40
2018-09-14T20:03:41.731Z,13.40
2018-09-14T20:06:11.755Z,13.40
2018-09-14T20:08:41.342Z,13.30
2018-09-14T20:11:12.451Z,13.30
2018-09-14T20:13:41.500Z,13.20
2018-09-14T20:16:10.636Z,13.20
2018-09-14T20:18:39.876Z,13.30
2018-09-14T20:21:11.038Z,13.30
2018-09-14T20:23:42.541Z,13.30
2018-09-14T20:26:16.999Z,13.30
2018-09-14T20:28:46.228Z,13.30
2018-09-14T20:31:15.446Z,13.40
2018-09-14T20:37:09.033Z,13.50
2018-09-14T20:39:42.351Z,13.60
2018-09-14T20:42:14.089Z,13.60
2018-09-14T20:44:44.936Z,13.70
2018-09-14T20:47:18.914Z,13.70
2018-09-14T20:49:49.939Z,13.70
2018-09-14T20:52:20.823Z,13.90
2018-09-14T20:54:53.140Z,14.00
2018-09-14T20:57:27.459Z,14.00
2018-09-14T20:59:59.199Z,14.00
2018-09-14T21:02:29.894Z,14.10
2018-09-14T21:05:02.694Z,14.10
2018-09-14T21:07:33.533Z,14.10
2018-09-14T21:10:04.656Z,14.20
2018-09-14T21:12:34.091Z,14.20
2018-09-14T21:15:06.972Z,14.40
2018-09-14T21:17:57.908Z,14.50
2018-09-14T21:23:06.975Z,14.50
2018-09-14T21:25:37.214Z,14.40
2018-09-14T21:28:07.429Z,14.40
2018-09-14T21:30:37.941Z,14.40
2018-09-14T21:33:09.494Z,14.30
2018-09-14T21:35:39.281Z,14.30
2018-09-14T21:38:09.875Z,14.30
2018-09-14T21:40:39.172Z,14.30
2018-09-14T21:43:08.837Z,14.30
2018-09-14T21:45:41.865Z,14.20
2018-09-14T21:48:13.548Z,14.20
2018-09-14T21:50:44.602Z,14.20
2018-09-14T21:53:16.077Z,14.20
2018-09-14T21:55:45.407Z,14.20
2018-09-14T21:58:17.166Z,14.20
2018-09-14T22:00:53.524Z,14.30
2018-09-14T22:03:25.953Z,14.30
2018-09-14T22:05:55.397Z,14.30
2018-09-14T22:08:24.852Z,14.20
2018-09-14T22:10:58.117Z,14.20
2018-09-14T22:13:28.347Z,14.10
2018-09-14T22:15:58.707Z,14.10
2018-09-14T22:18:30.429Z,14.10
2018-09-14T22:21:04.172Z,14.10
2018-09-14T22:23:36.566Z,14.00
2018-09-14T22:26:11.936Z,14.00
2018-09-14T22:28:44.201Z,13.90
2018-09-14T22:31:14.344Z,13.90
2018-09-14T22:33:47.012Z,13.80
2018-09-14T22:36:17.270Z,13.80
2018-09-14T22:38:46.734Z,13.80
2018-09-14T22:41:16.833Z,13.70
2018-09-14T22:43:48.290Z,13.60
2018-09-14T22:46:18.286Z,13.70
2018-09-14T22:48:47.774Z,13.60
2018-09-14T22:51:17.240Z,13.70
2018-09-14T22:53:47.164Z,13.70
2018-09-14T22:56:16.647Z,13.80
2018-09-14T22:58:46.221Z,13.70
2018-09-14T23:01:19.024Z,13.70
2018-09-14T23:03:49.755Z,13.70
2018-09-14T23:06:19.326Z,13.70
2018-09-14T23:08:49.500Z,13.70
2018-09-14T23:11:20.792Z,13.80
2018-09-14T23:13:50.335Z,13.70
2018-09-14T23:16:20.346Z,13.80
2018-09-14T23:18:53.975Z,13.80
2018-09-14T23:21:30.185Z,13.80
2018-09-14T23:24:01.870Z,13.80
2018-09-14T23:26:34.643Z,13.90
2018-09-14T23:29:04.853Z,13.90
2018-09-14T23:31:36.432Z,14.00
2018-09-14T23:34:06.935Z,14.00
2018-09-14T23:36:39.148Z,14.00
2018-09-14T23:39:10.758Z,14.10
2018-09-14T23:41:40.298Z,14.20
2018-09-14T23:44:11.500Z,14.30
2018-09-14T23:46:43.214Z,14.30
2018-09-14T23:49:19.627Z,14.30
2018-09-14T23:51:53.642Z,14.30
2018-09-14T23:54:24.294Z,14.30
2018-09-14T23:56:54.620Z,14.30
2018-09-14T23:59:26.802Z,14.30
